Time;durP1;ratioP1;P1;durP2;ratioP2;P2;SDS_P1;SDS_P2;PMS_P1;PMS_P2;Temp;Humidity;BMP_temperature;BMP_pressure;BME280_temperature;BME280_humidity;BME280_pressure;Samples;Min_cycle;Max_cycle;Signal;HPM_P1;HPM_P2
2023/04/23 00:01:42;;;;;;;11.30;10.80;;;;;;;;;;5049144;28;20041;-62
2023/04/23 00:04:08;;;;;;;13.25;12.48;;;;;;;;;;5049697;28;20013;-62
2023/04/23 00:06:34;;;;;;;12.02;11.43;;;;;;;;;;5041959;28;20033;-62
2023/04/23 00:08:59;;;;;;;12.00;11.40;;;;;;;;;;5046036;28;20016;-62
2023/04/23 00:11:25;;;;;;;11.95;11.35;;;;;;;;;;5046423;28;20025;-62
2023/04/23 00:13:50;;;;;;;12.80;12.10;;;;;;;;;;5042882;28;20075;-62
2023/04/23 00:16:17;;;;;;;12.73;12.02;;;;;;;;;;5042952;28;20382;-62
2023/04/23 00:18:42;;;;;;;11.68;11.07;;;;;;;;;;5043038;28;20025;-63
2023/04/23 00:21:08;;;;;;;11.05;10.55;;;;;;;;;;5047441;28;20535;-62
2023/04/23 00:23:33;;;;;;;10.95;10.45;;;;;;;;;;5050514;28;20036;-62
2023/04/23 00:25:58;;;;;;;11.57;11.00;;;;;;;;;;5051080;28;20083;-62
2023/04/23 00:28:24;;;;;;;11.27;10.77;;;;;;;;;;5042968;28;20384;-61
2023/04/23 00:30:49;;;;;;;11.80;11.20;;;;;;;;;;5044892;28;20790;-62
2023/04/23 00:33:15;;;;;;;11.50;10.90;;;;;;;;;;5046719;28;20038;-62
2023/04/23 00:35:40;;;;;;;11.70;11.10;;;;;;;;;;5049226;28;20392;-63
2023/04/23 00:38:06;;;;;;;12.98;12.27;;;;;;;;;;5045735;28;20025;-62
2023/04/23 00:40:31;;;;;;;12.55;11.85;;;;;;;;;;5045657;28;20025;-63
2023/04/23 00:42:57;;;;;;;12.32;11.63;;;;;;;;;;5038803;28;20036;-63
2023/04/23 00:45:22;;;;;;;11.75;11.15;;;;;;;;;;5042750;28;20013;-62
2023/04/23 00:47:48;;;;;;;12.20;11.60;;;;;;;;;;5047293;28;20029;-64
2023/04/23 00:50:13;;;;;;;12.15;11.55;;;;;;;;;;5036596;28;20034;-63
2023/04/23 00:52:39;;;;;;;12.50;11.85;;;;;;;;;;5043263;28;20021;-63
2023/04/23 00:55:05;;;;;;;12.50;11.80;;;;;;;;;;5040590;28;20025;-62
2023/04/23 00:57:31;;;;;;;11.75;11.18;;;;;;;;;;5045109;28;20040;-63
2023/04/23 00:59:57;;;;;;;11.80;11.20;;;;;;;;;;5043836;28;20036;-62
2023/04/23 01:02:23;;;;;;;12.10;11.50;;;;;;;;;;5037613;28;20053;-61
2023/04/23 01:04:53;;;;;;;12.38;11.68;;;;;;;;;;5047692;28;20029;-61
2023/04/23 01:07:19;;;;;;;11.70;11.10;;;;;;;;;;5048846;28;20025;-61
2023/04/23 01:09:44;;;;;;;12.20;11.60;;;;;;;;;;5046731;28;20021;-62
2023/04/23 01:12:09;;;;;;;12.00;11.40;;;;;;;;;;5045800;28;20486;-61
2023/04/23 01:14:36;;;;;;;12.20;11.60;;;;;;;;;;5044701;28;20025;-61
2023/04/23 01:17:01;;;;;;;12.23;11.63;;;;;;;;;;5046787;28;20413;-62
2023/04/23 01:19:27;;;;;;;11.50;11.00;;;;;;;;;;5047906;28;20040;-62
2023/04/23 01:21:52;;;;;;;11.80;11.20;;;;;;;;;;5049040;28;20158;-62
2023/04/23 01:24:18;;;;;;;11.95;11.35;;;;;;;;;;5045539;28;20025;-62
2023/04/23 01:26:43;;;;;;;11.48;10.93;;;;;;;;;;5043190;28;20025;-62
2023/04/23 01:29:09;;;;;;;11.85;11.25;;;;;;;;;;5046049;28;20104;-63
2023/04/23 01:31:35;;;;;;;11.70;11.10;;;;;;;;;;5044311;28;20066;-63
2023/04/23 01:34:00;;;;;;;12.30;11.70;;;;;;;;;;5046986;28;20050;-63
2023/04/23 01:36:26;;;;;;;11.60;11.00;;;;;;;;;;5047470;28;20036;-63
2023/04/23 01:38:51;;;;;;;12.23;11.63;;;;;;;;;;5053395;28;20032;-63
2023/04/23 01:41:17;;;;;;;11.75;11.15;;;;;;;;;;5048812;28;20380;-63
2023/04/23 01:43:43;;;;;;;12.63;11.93;;;;;;;;;;5043321;28;20025;-61
2023/04/23 01:46:08;;;;;;;12.10;11.48;;;;;;;;;;5048248;28;20032;-62
2023/04/23 01:48:34;;;;;;;12.07;11.48;;;;;;;;;;5048148;28;20036;-62
2023/04/23 01:51:00;;;;;;;11.10;10.60;;;;;;;;;;5046613;28;20237;-62
2023/04/23 01:53:25;;;;;;;11.50;10.90;;;;;;;;;;5039975;28;20111;-62
2023/04/23 01:55:51;;;;;;;12.13;11.52;;;;;;;;;;5046452;28;20021;-62
2023/04/23 01:58:16;;;;;;;11.73;11.13;;;;;;;;;;5047816;28;20025;-62
2023/04/23 02:00:42;;;;;;;11.10;10.60;;;;;;;;;;5048116;28;20077;-62
2023/04/23 02:03:07;;;;;;;11.80;11.20;;;;;;;;;;5047027;28;20438;-63
2023/04/23 02:05:33;;;;;;;11.75;11.15;;;;;;;;;;5044887;28;20548;-62
2023/04/23 02:07:59;;;;;;;12.10;11.50;;;;;;;;;;5046629;28;20029;-62
2023/04/23 02:10:24;;;;;;;11.88;11.27;;;;;;;;;;5047043;28;20017;-62
2023/04/23 02:12:49;;;;;;;11.85;11.25;;;;;;;;;;5045076;28;20487;-62
2023/04/23 02:15:15;;;;;;;12.02;11.43;;;;;;;;;;5048306;28;20037;-62
2023/04/23 02:17:40;;;;;;;11.80;11.20;;;;;;;;;;5048350;28;20507;-62
2023/04/23 02:20:08;;;;;;;12.65;11.95;;;;;;;;;;5043804;28;20029;-62
2023/04/23 02:22:35;;;;;;;11.00;10.50;;;;;;;;;;5048862;28;20377;-62
2023/04/23 02:25:01;;;;;;;12.52;11.82;;;;;;;;;;5046078;28;20496;-62
2023/04/23 02:27:26;;;;;;;11.70;11.10;;;;;;;;;;5048553;28;20075;-62
2023/04/23 02:29:52;;;;;;;11.63;11.02;;;;;;;;;;5047307;28;20104;-62
2023/04/23 02:32:17;;;;;;;11.60;11.00;;;;;;;;;;5048262;28;20032;-62
2023/04/23 02:34:43;;;;;;;11.63;11.02;;;;;;;;;;5046667;28;20664;-62
2023/04/23 02:37:08;;;;;;;11.10;10.60;;;;;;;;;;5046065;28;20414;-62
2023/04/23 02:39:33;;;;;;;11.30;10.70;;;;;;;;;;5047214;28;20389;-62
2023/04/23 02:41:59;;;;;;;11.05;10.55;;;;;;;;;;5049816;28;20025;-62
2023/04/23 02:44:24;;;;;;;11.98;11.35;;;;;;;;;;5050598;28;20029;-62
2023/04/23 02:46:50;;;;;;;11.68;11.07;;;;;;;;;;5051728;28;20083;-62
2023/04/23 02:49:16;;;;;;;11.27;10.77;;;;;;;;;;5050150;28;20025;-62
2023/04/23 02:51:41;;;;;;;11.60;11.00;;;;;;;;;;5044014;28;20029;-62
2023/04/23 02:54:06;;;;;;;12.25;11.55;;;;;;;;;;5045670;28;20075;-62
2023/04/23 02:56:32;;;;;;;12.38;11.68;;;;;;;;;;5050790;28;20564;-62
2023/04/23 02:58:57;;;;;;;11.10;10.60;;;;;;;;;;5053379;28;20075;-62
2023/04/23 03:01:22;;;;;;;11.20;10.70;;;;;;;;;;5049011;28;20394;-62
2023/04/23 03:03:48;;;;;;;12.10;11.50;;;;;;;;;;5043905;28;20090;-62
2023/04/23 03:06:13;;;;;;;11.13;10.63;;;;;;;;;;5047635;28;20480;-62
2023/04/23 03:08:38;;;;;;;12.68;11.98;;;;;;;;;;5047814;28;20431;-62
2023/04/23 03:11:04;;;;;;;12.20;11.57;;;;;;;;;;5051518;28;20021;-62
2023/04/23 03:13:29;;;;;;;12.43;11.73;;;;;;;;;;5048993;28;20103;-62
2023/04/23 03:15:55;;;;;;;11.20;10.70;;;;;;;;;;5046616;28;20036;-62
2023/04/23 03:18:20;;;;;;;11.00;10.50;;;;;;;;;;5050101;28;20036;-62
2023/04/23 03:20:46;;;;;;;11.95;11.35;;;;;;;;;;5050049;28;20519;-62
2023/04/23 03:23:12;;;;;;;11.25;10.73;;;;;;;;;;5048706;28;20703;-62
2023/04/23 03:25:37;;;;;;;10.88;10.38;;;;;;;;;;5051300;28;20484;-61
2023/04/23 03:28:03;;;;;;;10.90;10.40;;;;;;;;;;5050245;28;20029;-63
2023/04/23 03:30:28;;;;;;;10.60;10.10;;;;;;;;;;5049722;28;20135;-62
2023/04/23 03:32:55;;;;;;;11.95;11.32;;;;;;;;;;5050755;28;20032;-62
2023/04/23 03:35:20;;;;;;;11.32;10.73;;;;;;;;;;5047185;28;20134;-62
2023/04/23 03:37:45;;;;;;;10.70;10.20;;;;;;;;;;5053548;28;20029;-62
2023/04/23 03:40:11;;;;;;;10.88;10.38;;;;;;;;;;5051081;28;20396;-62
2023/04/23 03:42:36;;;;;;;11.68;11.07;;;;;;;;;;5049650;28;20089;-62
2023/04/23 03:45:02;;;;;;;10.98;10.48;;;;;;;;;;5050276;28;20032;-62
2023/04/23 03:47:27;;;;;;;12.13;11.52;;;;;;;;;;5046856;28;20025;-62
2023/04/23 03:49:53;;;;;;;11.35;10.85;;;;;;;;;;5052047;28;20342;-62
2023/04/23 03:52:18;;;;;;;10.88;10.38;;;;;;;;;;5041380;28;20061;-62
2023/04/23 03:54:44;;;;;;;12.23;11.63;;;;;;;;;;5050034;28;20088;-62
2023/04/23 03:57:11;;;;;;;10.98;10.48;;;;;;;;;;5051026;28;20100;-62
2023/04/23 03:59:36;;;;;;;11.90;11.30;;;;;;;;;;5051056;28;20029;-62
2023/04/23 04:02:03;;;;;;;11.93;11.32;;;;;;;;;;5047056;28;20072;-62
2023/04/23 04:04:28;;;;;;;11.32;10.82;;;;;;;;;;5049470;28;20052;-62
2023/04/23 04:06:53;;;;;;;11.65;11.15;;;;;;;;;;5044483;28;20489;-62
2023/04/23 04:09:19;;;;;;;12.10;11.50;;;;;;;;;;5045585;28;20036;-62
2023/04/23 04:11:44;;;;;;;12.00;11.40;;;;;;;;;;5046639;28;20021;-62
2023/04/23 04:14:09;;;;;;;11.90;11.40;;;;;;;;;;5048854;28;20344;-61
2023/04/23 04:16:35;;;;;;;12.20;11.63;;;;;;;;;;5047033;28;20048;-62
2023/04/23 04:19:00;;;;;;;11.98;11.48;;;;;;;;;;5048614;28;20400;-63
2023/04/23 04:21:27;;;;;;;12.30;11.70;;;;;;;;;;5047056;28;20036;-61
2023/04/23 04:23:52;;;;;;;12.40;11.80;;;;;;;;;;5046884;28;20082;-61
2023/04/23 04:26:17;;;;;;;12.50;11.90;;;;;;;;;;5048013;28;20021;-62
2023/04/23 04:28:44;;;;;;;12.40;11.80;;;;;;;;;;5048962;28;20033;-62
2023/04/23 04:31:09;;;;;;;13.43;12.82;;;;;;;;;;5044963;28;20222;-62
2023/04/23 04:33:35;;;;;;;12.73;12.13;;;;;;;;;;5048659;28;20516;-61
2023/04/23 04:36:00;;;;;;;12.63;12.02;;;;;;;;;;5049099;28;20040;-62
2023/04/23 04:38:27;;;;;;;13.20;12.60;;;;;;;;;;5045835;28;20033;-62
2023/04/23 04:40:58;;;;;;;12.80;12.20;;;;;;;;;;5046047;28;20029;-62
2023/04/23 04:43:24;;;;;;;13.00;12.40;;;;;;;;;;5043972;28;20028;-62
2023/04/23 04:45:50;;;;;;;13.15;12.55;;;;;;;;;;5050900;28;20024;-62
2023/04/23 04:48:15;;;;;;;13.73;13.13;;;;;;;;;;5046795;28;20103;-63
2023/04/23 04:50:40;;;;;;;12.85;12.25;;;;;;;;;;5048465;28;20028;-61
2023/04/23 04:53:06;;;;;;;13.55;12.95;;;;;;;;;;5042848;28;20369;-63
2023/04/23 04:55:31;;;;;;;12.93;12.32;;;;;;;;;;5045655;28;20070;-62
2023/04/23 04:57:56;;;;;;;12.93;12.33;;;;;;;;;;5042527;28;20045;-63
2023/04/23 05:00:24;;;;;;;13.07;12.48;;;;;;;;;;5044871;28;20278;-62
2023/04/23 05:02:50;;;;;;;14.27;13.57;;;;;;;;;;5048431;28;20064;-62
2023/04/23 05:05:15;;;;;;;13.90;13.20;;;;;;;;;;5046779;28;20079;-62
2023/04/23 05:07:41;;;;;;;13.20;12.60;;;;;;;;;;5049066;28;20070;-62
2023/04/23 05:10:06;;;;;;;12.90;12.30;;;;;;;;;;5046983;28;20032;-63
2023/04/23 05:12:31;;;;;;;12.80;12.20;;;;;;;;;;5046416;28;20266;-61
2023/04/23 05:14:57;;;;;;;13.85;13.15;;;;;;;;;;5045413;28;20029;-60
2023/04/23 05:17:22;;;;;;;13.90;13.20;;;;;;;;;;5046912;28;20477;-62
2023/04/23 05:19:47;;;;;;;13.75;13.07;;;;;;;;;;5052456;28;20121;-63
2023/04/23 05:22:13;;;;;;;13.45;12.85;;;;;;;;;;5046691;28;20024;-63
2023/04/23 05:24:38;;;;;;;14.07;13.38;;;;;;;;;;5047238;28;20473;-62
2023/04/23 05:27:03;;;;;;;13.77;13.07;;;;;;;;;;5044259;28;20185;-62
2023/04/23 05:29:29;;;;;;;14.13;13.43;;;;;;;;;;5046747;28;20033;-62
2023/04/23 05:31:54;;;;;;;13.15;12.55;;;;;;;;;;5048633;28;20032;-63
2023/04/23 05:34:20;;;;;;;13.10;12.50;;;;;;;;;;5046857;28;20470;-62
2023/04/23 05:36:45;;;;;;;13.38;12.77;;;;;;;;;;5047636;28;20033;-62
2023/04/23 05:39:11;;;;;;;12.65;12.05;;;;;;;;;;5048994;28;20032;-63
2023/04/23 05:41:36;;;;;;;13.35;12.75;;;;;;;;;;5046743;28;20029;-62
2023/04/23 05:44:01;;;;;;;13.98;13.27;;;;;;;;;;5044806;28;20440;-62
2023/04/23 05:46:27;;;;;;;13.60;13.00;;;;;;;;;;5047680;28;20025;-62
2023/04/23 05:48:52;;;;;;;13.20;12.60;;;;;;;;;;5047200;28;20048;-63
2023/04/23 05:51:18;;;;;;;13.05;12.45;;;;;;;;;;5047216;28;20033;-63
2023/04/23 05:53:43;;;;;;;13.77;13.15;;;;;;;;;;5046588;28;20025;-63
2023/04/23 05:56:08;;;;;;;13.47;12.87;;;;;;;;;;5048148;28;20041;-63
2023/04/23 05:58:34;;;;;;;12.80;12.20;;;;;;;;;;5043806;28;20388;-62
2023/04/23 06:00:59;;;;;;;13.02;12.43;;;;;;;;;;5046276;28;20292;-62
2023/04/23 06:03:25;;;;;;;13.23;12.63;;;;;;;;;;5047147;28;20025;-63
2023/04/23 06:05:50;;;;;;;13.52;12.93;;;;;;;;;;5040596;28;20408;-63
2023/04/23 06:08:16;;;;;;;13.30;12.70;;;;;;;;;;5044282;28;20033;-63
2023/04/23 06:10:41;;;;;;;13.13;12.52;;;;;;;;;;5047879;28;20262;-62
2023/04/23 06:13:07;;;;;;;13.87;13.27;;;;;;;;;;5043487;28;20029;-63
2023/04/23 06:15:32;;;;;;;13.55;12.95;;;;;;;;;;5047144;28;20261;-62
2023/04/23 06:17:57;;;;;;;13.73;13.13;;;;;;;;;;5050694;28;20540;-62
2023/04/23 06:20:23;;;;;;;13.20;12.60;;;;;;;;;;5048013;28;20323;-61
2023/04/23 06:22:48;;;;;;;13.05;12.45;;;;;;;;;;5050267;28;20091;-63
2023/04/23 06:25:14;;;;;;;13.00;12.40;;;;;;;;;;5044829;28;20033;-63
2023/04/23 06:27:39;;;;;;;13.50;12.90;;;;;;;;;;5048770;28;20621;-63
2023/04/23 06:30:05;;;;;;;13.25;12.65;;;;;;;;;;5051164;28;20025;-62
2023/04/23 06:32:30;;;;;;;13.20;12.60;;;;;;;;;;5051135;28;20032;-63
2023/04/23 06:34:56;;;;;;;13.07;12.47;;;;;;;;;;5050401;28;20029;-62
2023/04/23 06:37:21;;;;;;;12.73;12.13;;;;;;;;;;5050816;28;20265;-63
2023/04/23 06:39:46;;;;;;;12.68;12.07;;;;;;;;;;5048395;28;20610;-63
2023/04/23 06:42:12;;;;;;;13.00;12.40;;;;;;;;;;5046775;28;20028;-62
2023/04/23 06:44:37;;;;;;;13.43;12.83;;;;;;;;;;5053859;28;20013;-63
2023/04/23 06:47:03;;;;;;;13.00;12.40;;;;;;;;;;5049332;28;20260;-63
2023/04/23 06:49:29;;;;;;;13.00;12.40;;;;;;;;;;5049347;28;20366;-63
2023/04/23 06:51:54;;;;;;;12.73;12.13;;;;;;;;;;5049287;28;20440;-64
2023/04/23 06:54:20;;;;;;;12.77;12.18;;;;;;;;;;5048966;28;20094;-62
2023/04/23 06:56:45;;;;;;;13.00;12.40;;;;;;;;;;5051776;28;20021;-62
2023/04/23 06:59:10;;;;;;;12.73;12.13;;;;;;;;;;5047949;28;20269;-63
2023/04/23 07:01:36;;;;;;;12.73;12.13;;;;;;;;;;5049294;28;20053;-63
2023/04/23 07:04:01;;;;;;;12.65;12.05;;;;;;;;;;5049772;28;20096;-63
2023/04/23 07:06:26;;;;;;;13.20;12.60;;;;;;;;;;5049224;28;20033;-63
2023/04/23 07:08:52;;;;;;;12.77;12.17;;;;;;;;;;5041239;28;20023;-64
2023/04/23 07:11:17;;;;;;;13.10;12.50;;;;;;;;;;5050283;28;20281;-63
2023/04/23 07:13:42;;;;;;;12.73;12.13;;;;;;;;;;5049192;28;20408;-63
2023/04/23 07:16:08;;;;;;;12.45;11.85;;;;;;;;;;5047825;28;20017;-63
2023/04/23 07:18:33;;;;;;;12.27;11.77;;;;;;;;;;5047572;28;20057;-63
2023/04/23 07:20:58;;;;;;;13.25;12.65;;;;;;;;;;5048401;28;20297;-62
2023/04/23 07:23:24;;;;;;;13.20;12.60;;;;;;;;;;5047641;28;20021;-63
2023/04/23 07:25:49;;;;;;;13.60;13.00;;;;;;;;;;5049026;28;20021;-63
2023/04/23 07:28:14;;;;;;;13.85;13.15;;;;;;;;;;5048488;28;20052;-62
2023/04/23 07:30:40;;;;;;;13.20;12.60;;;;;;;;;;5049439;28;20116;-61
2023/04/23 07:33:05;;;;;;;13.00;12.40;;;;;;;;;;5048852;28;20021;-61
2023/04/23 07:35:30;;;;;;;12.90;12.30;;;;;;;;;;5057601;28;20108;-62
2023/04/23 07:37:56;;;;;;;13.65;13.00;;;;;;;;;;5047673;28;20023;-63
2023/04/23 07:40:22;;;;;;;12.90;12.30;;;;;;;;;;5051289;28;20025;-63
2023/04/23 07:42:47;;;;;;;14.55;13.85;;;;;;;;;;5048974;28;20025;-63
2023/04/23 07:45:13;;;;;;;13.57;12.95;;;;;;;;;;5045491;28;20025;-63
2023/04/23 07:47:38;;;;;;;13.00;12.40;;;;;;;;;;5050052;28;20378;-63
2023/04/23 07:50:04;;;;;;;13.65;13.02;;;;;;;;;;5042770;28;20009;-63
2023/04/23 07:52:29;;;;;;;13.00;12.40;;;;;;;;;;5050434;28;20033;-62
2023/04/23 07:54:55;;;;;;;13.82;13.13;;;;;;;;;;5046389;28;20036;-63
2023/04/23 07:57:20;;;;;;;12.55;11.95;;;;;;;;;;5049139;28;20118;-63
2023/04/23 07:59:45;;;;;;;12.90;12.30;;;;;;;;;;5048557;28;20027;-63
2023/04/23 08:02:11;;;;;;;13.65;12.98;;;;;;;;;;5048168;28;20700;-63
2023/04/23 08:04:36;;;;;;;13.30;12.70;;;;;;;;;;5047637;28;20388;-63
2023/04/23 08:07:01;;;;;;;14.50;13.80;;;;;;;;;;5046777;28;20483;-62
2023/04/23 08:09:27;;;;;;;13.70;13.00;;;;;;;;;;5053124;28;20824;-63
2023/04/23 08:11:54;;;;;;;13.33;12.73;;;;;;;;;;5047507;28;20116;-63
2023/04/23 08:14:19;;;;;;;13.80;13.10;;;;;;;;;;5048240;28;20780;-63
2023/04/23 08:16:44;;;;;;;13.90;13.20;;;;;;;;;;5049448;28;20024;-63
2023/04/23 08:19:10;;;;;;;13.73;13.07;;;;;;;;;;5047578;28;20316;-62
2023/04/23 08:21:36;;;;;;;14.02;13.32;;;;;;;;;;5041238;28;20031;-61
2023/04/23 08:24:04;;;;;;;14.00;13.30;;;;;;;;;;5044872;28;20408;-62
2023/04/23 08:26:29;;;;;;;15.30;14.48;;;;;;;;;;5047049;28;20044;-63
2023/04/23 08:28:56;;;;;;;14.02;13.32;;;;;;;;;;5047818;28;20075;-63
2023/04/23 08:31:21;;;;;;;13.73;13.02;;;;;;;;;;5045581;28;20103;-63
2023/04/23 08:33:46;;;;;;;14.70;13.93;;;;;;;;;;5042202;28;20772;-63
2023/04/23 08:36:14;;;;;;;14.80;14.00;;;;;;;;;;5042916;28;20032;-62
2023/04/23 08:38:39;;;;;;;15.25;14.40;;;;;;;;;;5045467;28;20049;-61
2023/04/23 08:41:05;;;;;;;15.13;14.32;;;;;;;;;;5044816;28;20496;-62
2023/04/23 08:43:32;;;;;;;14.13;13.43;;;;;;;;;;5049622;28;20032;-62
2023/04/23 08:46:00;;;;;;;15.05;14.25;;;;;;;;;;5048151;28;20169;-63
2023/04/23 08:48:27;;;;;;;13.82;13.13;;;;;;;;;;5048949;28;20021;-64
2023/04/23 08:50:52;;;;;;;15.48;14.57;;;;;;;;;;5038162;28;20085;-64
2023/04/23 08:53:18;;;;;;;16.10;15.10;;;;;;;;;;5037413;28;20445;-65
2023/04/23 08:55:44;;;;;;;17.30;16.20;;;;;;;;;;5043577;28;20057;-65
2023/04/23 08:58:09;;;;;;;16.33;15.32;;;;;;;;;;5042523;28;20053;-66
2023/04/23 09:00:35;;;;;;;17.13;16.05;;;;;;;;;;5045549;28;20048;-65
2023/04/23 09:03:00;;;;;;;16.75;15.73;;;;;;;;;;5044822;28;20033;-65
2023/04/23 09:05:26;;;;;;;15.70;14.80;;;;;;;;;;5040162;28;20508;-64
2023/04/23 09:07:53;;;;;;;16.00;15.07;;;;;;;;;;5043525;28;20440;-64
2023/04/23 09:10:18;;;;;;;15.25;14.45;;;;;;;;;;5042262;28;20024;-66
2023/04/23 09:12:43;;;;;;;16.63;15.63;;;;;;;;;;5041810;28;20452;-66
2023/04/23 09:15:09;;;;;;;16.63;15.63;;;;;;;;;;5042369;28;20063;-66
2023/04/23 09:17:36;;;;;;;16.52;15.52;;;;;;;;;;5048509;28;20714;-63
2023/04/23 09:20:02;;;;;;;17.30;16.20;;;;;;;;;;5043267;28;20029;-64
2023/04/23 09:22:37;;;;;;;16.63;15.63;;;;;;;;;;5040256;28;20043;-66
2023/04/23 09:25:04;;;;;;;16.38;15.38;;;;;;;;;;5037132;28;20049;-64
2023/04/23 09:27:30;;;;;;;16.67;15.68;;;;;;;;;;5041859;28;20080;-65
2023/04/23 09:29:56;;;;;;;16.58;15.57;;;;;;;;;;5032845;28;22206;-64
2023/04/23 09:32:29;;;;;;;16.73;15.73;;;;;;;;;;5037006;28;20108;-63
2023/04/23 09:34:55;;;;;;;18.17;16.98;;;;;;;;;;5043274;28;20431;-66
2023/04/23 09:37:24;;;;;;;15.15;14.32;;;;;;;;;;5049881;28;20058;-66
2023/04/23 09:39:52;;;;;;;16.73;15.73;;;;;;;;;;5036765;28;20033;-66
2023/04/23 09:42:17;;;;;;;15.35;14.45;;;;;;;;;;5046610;28;20024;-65
2023/04/23 09:44:43;;;;;;;15.68;14.77;;;;;;;;;;5050144;28;20126;-63
2023/04/23 09:47:08;;;;;;;16.23;15.25;;;;;;;;;;5041723;28;20799;-64
2023/04/23 09:49:47;;;;;;;15.70;14.80;;;;;;;;;;5042506;28;20032;-64
2023/04/23 09:52:13;;;;;;;15.40;14.50;;;;;;;;;;5039962;28;20021;-63
2023/04/23 09:54:38;;;;;;;14.68;13.88;;;;;;;;;;5037603;28;20036;-64
2023/04/23 09:57:07;;;;;;;15.68;14.77;;;;;;;;;;5041313;28;20016;-64
2023/04/23 09:59:33;;;;;;;16.35;15.35;;;;;;;;;;5041298;28;20029;-62
2023/04/23 10:02:00;;;;;;;16.35;15.35;;;;;;;;;;5042235;28;20037;-63
2023/04/23 10:04:26;;;;;;;16.02;15.02;;;;;;;;;;5042197;28;20393;-63
2023/04/23 10:06:58;;;;;;;15.85;14.93;;;;;;;;;;5044266;28;20021;-65
2023/04/23 10:09:24;;;;;;;15.88;14.90;;;;;;;;;;5044323;28;20384;-66
2023/04/23 10:11:57;;;;;;;16.25;15.25;;;;;;;;;;5042498;28;20024;-64
2023/04/23 10:14:23;;;;;;;15.93;15.02;;;;;;;;;;5047488;28;20036;-66
2023/04/23 10:16:55;;;;;;;16.15;15.15;;;;;;;;;;5046568;28;20020;-64
2023/04/23 10:19:24;;;;;;;14.88;14.07;;;;;;;;;;5038399;28;20024;-65
2023/04/23 10:21:57;;;;;;;15.80;14.88;;;;;;;;;;5050189;28;20027;-65
2023/04/23 10:24:23;;;;;;;15.70;14.80;;;;;;;;;;5047083;28;20028;-64
2023/04/23 10:26:51;;;;;;;16.40;15.40;;;;;;;;;;5051431;28;20013;-67
2023/04/23 10:29:20;;;;;;;15.50;14.60;;;;;;;;;;5049640;28;20087;-65
2023/04/23 10:31:46;;;;;;;14.80;14.00;;;;;;;;;;5043098;28;20017;-66
2023/04/23 10:34:11;;;;;;;18.27;17.02;;;;;;;;;;5050394;28;20036;-68
2023/04/23 10:36:37;;;;;;;16.75;15.70;;;;;;;;;;5050348;28;20013;-68
2023/04/23 10:39:06;;;;;;;15.52;14.63;;;;;;;;;;5043809;28;20046;-65
2023/04/23 10:41:36;;;;;;;15.40;14.50;;;;;;;;;;5039897;28;20091;-65
2023/04/23 10:44:03;;;;;;;15.38;14.48;;;;;;;;;;5038469;28;20116;-66
2023/04/23 10:46:29;;;;;;;16.30;15.30;;;;;;;;;;5033079;28;20018;-65
2023/04/23 10:49:14;;;;;;;15.35;14.45;;;;;;;;;;5041196;28;20086;-64
2023/04/23 10:51:41;;;;;;;14.75;13.95;;;;;;;;;;5034407;28;20068;-65
2023/04/23 10:54:08;;;;;;;15.80;14.88;;;;;;;;;;5042196;28;20021;-65
2023/04/23 10:56:34;;;;;;;15.13;14.23;;;;;;;;;;5048313;28;20029;-65
2023/04/23 10:58:59;;;;;;;15.25;14.35;;;;;;;;;;5040870;28;20027;-64
2023/04/23 11:01:26;;;;;;;15.30;14.40;;;;;;;;;;5035288;28;20124;-65
2023/04/23 11:03:52;;;;;;;16.58;15.55;;;;;;;;;;5047673;28;20029;-64
2023/04/23 11:06:36;;;;;;;15.00;14.13;;;;;;;;;;5040294;28;20021;-65
2023/04/23 11:09:21;;;;;;;15.13;14.27;;;;;;;;;;5058452;28;20094;-66
2023/04/23 11:11:46;;;;;;;15.23;14.32;;;;;;;;;;5051014;28;20020;-65
2023/04/23 11:14:15;;;;;;;15.15;14.30;;;;;;;;;;5048662;28;20032;-65
2023/04/23 11:16:40;;;;;;;15.23;14.35;;;;;;;;;;5056563;28;20161;-63
2023/04/23 11:19:14;;;;;;;16.35;15.35;;;;;;;;;;5046283;28;20033;-63
2023/04/23 11:21:58;;;;;;;15.15;14.30;;;;;;;;;;5044440;28;20037;-61
2023/04/23 11:24:30;;;;;;;15.07;14.20;;;;;;;;;;5051789;28;20570;-62
2023/04/23 11:26:56;;;;;;;16.95;15.85;;;;;;;;;;5047978;28;20052;-62
2023/04/23 11:29:23;;;;;;;14.43;13.65;;;;;;;;;;5046913;28;20071;-63
2023/04/23 11:31:48;;;;;;;15.48;14.57;;;;;;;;;;5039281;28;20025;-62
2023/04/23 11:34:14;;;;;;;14.43;13.63;;;;;;;;;;5046965;28;20652;-61
2023/04/23 11:36:40;;;;;;;15.00;14.15;;;;;;;;;;5040449;28;20025;-62
2023/04/23 11:39:06;;;;;;;14.18;13.43;;;;;;;;;;5042417;28;20041;-61
2023/04/23 11:41:32;;;;;;;15.05;14.25;;;;;;;;;;5046345;28;20040;-63
2023/04/23 11:43:57;;;;;;;15.50;14.60;;;;;;;;;;5048430;28;20424;-62
2023/04/23 11:46:23;;;;;;;14.60;13.80;;;;;;;;;;5044177;28;20103;-65
2023/04/23 11:48:49;;;;;;;15.40;14.50;;;;;;;;;;5048166;28;20025;-65
2023/04/23 11:51:15;;;;;;;13.60;12.90;;;;;;;;;;5044645;28;20553;-65
2023/04/23 11:53:46;;;;;;;13.25;12.65;;;;;;;;;;5050699;28;20029;-65
2023/04/23 11:56:14;;;;;;;15.60;14.70;;;;;;;;;;5044939;28;20777;-64
2023/04/23 11:58:40;;;;;;;15.52;14.63;;;;;;;;;;5039294;28;20033;-65
2023/04/23 12:01:05;;;;;;;13.80;13.10;;;;;;;;;;5046830;28;20041;-65
2023/04/23 12:03:31;;;;;;;14.10;13.40;;;;;;;;;;5055064;28;20043;-63
2023/04/23 12:05:57;;;;;;;15.13;14.25;;;;;;;;;;5046179;28;20111;-65
2023/04/23 12:08:22;;;;;;;14.70;13.90;;;;;;;;;;5051992;28;20025;-65
2023/04/23 12:10:51;;;;;;;14.73;13.93;;;;;;;;;;5047351;28;20033;-65
2023/04/23 12:13:17;;;;;;;13.75;13.05;;;;;;;;;;5047617;28;20758;-62
2023/04/23 12:15:44;;;;;;;13.55;12.85;;;;;;;;;;5040341;28;20030;-60
2023/04/23 12:18:09;;;;;;;15.65;14.75;;;;;;;;;;5041524;28;20029;-62
2023/04/23 12:20:35;;;;;;;14.98;14.15;;;;;;;;;;5048062;28;20028;-63
2023/04/23 12:23:05;;;;;;;14.02;13.32;;;;;;;;;;5041340;28;20040;-63
2023/04/23 12:25:31;;;;;;;13.65;12.95;;;;;;;;;;5052256;28;20029;-62
2023/04/23 12:28:01;;;;;;;14.95;14.15;;;;;;;;;;5051572;28;20071;-62
2023/04/23 12:30:30;;;;;;;13.90;13.20;;;;;;;;;;5046202;28;20492;-63
2023/04/23 12:32:59;;;;;;;14.00;13.30;;;;;;;;;;5052741;28;20472;-62
2023/04/23 12:35:40;;;;;;;13.43;12.73;;;;;;;;;;5047381;28;20051;-62
2023/04/23 12:38:06;;;;;;;13.30;12.60;;;;;;;;;;5048204;28;20077;-63
2023/04/23 12:40:31;;;;;;;14.75;13.95;;;;;;;;;;5047260;28;20051;-62
2023/04/23 12:42:57;;;;;;;14.00;13.27;;;;;;;;;;5058959;28;20096;-62
2023/04/23 12:45:22;;;;;;;14.52;13.73;;;;;;;;;;5042294;28;20336;-62
2023/04/23 12:47:47;;;;;;;13.93;13.23;;;;;;;;;;5046092;28;20017;-62
2023/04/23 12:50:13;;;;;;;13.57;12.88;;;;;;;;;;5049277;28;20047;-63
2023/04/23 12:52:40;;;;;;;14.45;13.68;;;;;;;;;;5050768;28;20028;-62
2023/04/23 12:55:06;;;;;;;14.05;13.35;;;;;;;;;;5050713;28;20021;-62
2023/04/23 12:57:31;;;;;;;16.60;15.60;;;;;;;;;;5054940;28;20090;-62
2023/04/23 12:59:57;;;;;;;13.68;12.98;;;;;;;;;;5049643;28;20021;-62
2023/04/23 13:02:23;;;;;;;14.77;13.98;;;;;;;;;;5053388;28;20028;-62
2023/04/23 13:04:48;;;;;;;14.85;14.05;;;;;;;;;;5049125;28;20021;-62
2023/04/23 13:07:14;;;;;;;13.95;13.25;;;;;;;;;;5053617;28;20046;-63
2023/04/23 13:09:39;;;;;;;15.20;14.30;;;;;;;;;;5050955;28;20047;-62
2023/04/23 13:12:05;;;;;;;14.68;13.88;;;;;;;;;;5052787;28;20017;-63
2023/04/23 13:14:31;;;;;;;14.20;13.45;;;;;;;;;;5052758;28;20030;-61
2023/04/23 13:16:57;;;;;;;14.18;13.38;;;;;;;;;;5055438;28;20387;-63
2023/04/23 13:19:23;;;;;;;14.77;13.98;;;;;;;;;;5053558;28;20064;-63
2023/04/23 13:21:48;;;;;;;15.18;14.27;;;;;;;;;;5053327;28;20409;-63
2023/04/23 13:24:13;;;;;;;14.50;13.70;;;;;;;;;;5050504;28;20388;-63
2023/04/23 13:26:39;;;;;;;14.77;13.98;;;;;;;;;;5054743;28;20091;-62
2023/04/23 13:29:04;;;;;;;14.70;13.90;;;;;;;;;;5063229;28;20022;-62
2023/04/23 13:31:30;;;;;;;14.10;13.35;;;;;;;;;;5059278;28;20028;-63
2023/04/23 13:33:56;;;;;;;14.73;13.93;;;;;;;;;;5059504;28;20075;-63
2023/04/23 13:36:21;;;;;;;14.45;13.65;;;;;;;;;;5053155;28;20424;-61
2023/04/23 13:38:47;;;;;;;14.10;13.40;;;;;;;;;;5050442;28;20108;-62
2023/04/23 13:41:12;;;;;;;14.20;13.43;;;;;;;;;;5054846;28;20488;-62
2023/04/23 13:43:37;;;;;;;14.18;13.43;;;;;;;;;;5049877;28;20028;-61
2023/04/23 13:46:03;;;;;;;14.50;13.70;;;;;;;;;;5052650;28;20020;-63
2023/04/23 13:48:30;;;;;;;15.20;14.30;;;;;;;;;;5050774;28;20041;-63
2023/04/23 13:50:56;;;;;;;13.80;13.10;;;;;;;;;;5046563;28;20506;-62
2023/04/23 13:53:21;;;;;;;13.60;12.90;;;;;;;;;;5048425;28;20108;-62
2023/04/23 13:55:47;;;;;;;14.55;13.75;;;;;;;;;;5043477;28;20376;-62
2023/04/23 13:58:12;;;;;;;13.88;13.18;;;;;;;;;;5059127;28;20075;-63
2023/04/23 14:00:37;;;;;;;13.90;13.20;;;;;;;;;;5062006;28;20044;-62
2023/04/23 14:03:03;;;;;;;14.60;13.80;;;;;;;;;;5061133;28;20052;-62
2023/04/23 14:05:29;;;;;;;13.77;13.07;;;;;;;;;;5060316;28;20027;-62
2023/04/23 14:07:55;;;;;;;14.45;13.65;;;;;;;;;;5056368;28;20554;-61
2023/04/23 14:10:20;;;;;;;13.63;12.93;;;;;;;;;;5059400;28;20025;-63